Time;durP1;ratioP1;P1;durP2;ratioP2;P2;SDS_P1;SDS_P2;PMS_P1;PMS_P2;Temp;Humidity;BMP_temperature;BMP_pressure;BME280_temperature;BME280_humidity;BME280_pressure;Samples;Min_cycle;Max_cycle;Signal;HPM_P1;HPM_P2
2023/08/30 00:00:37;;;;;;;6.70;2.07;;;13.00;99.90;;;;;;5031180;28;20178;-75
2023/08/30 00:03:03;;;;;;;8.13;2.17;;;12.00;99.90;;;;;;5030989;28;20298;-75
2023/08/30 00:05:28;;;;;;;11.37;2.50;;;;;;;;;;5030013;28;20174;-75
2023/08/30 00:07:54;;;;;;;9.57;2.40;;;11.90;99.90;;;;;;5031504;28;20173;-75
2023/08/30 00:10:20;;;;;;;6.37;1.83;;;12.10;99.90;;;;;;5030996;28;20678;-75
2023/08/30 00:12:45;;;;;;;8.37;2.63;;;12.20;99.90;;;;;;5030747;28;20205;-76
2023/08/30 00:15:11;;;;;;;9.87;2.40;;;12.20;99.90;;;;;;5030951;28;20174;-75
2023/08/30 00:17:37;;;;;;;10.43;2.27;;;12.00;99.90;;;;;;5030700;28;20166;-74
2023/08/30 00:20:03;;;;;;;9.70;2.33;;;12.00;99.90;;;;;;5029647;28;20578;-74
2023/08/30 00:22:28;;;;;;;11.60;2.43;;;11.90;99.90;;;;;;5033608;28;20288;-74
2023/08/30 00:24:54;;;;;;;9.80;2.23;;;12.00;99.90;;;;;;5033564;28;20174;-74
2023/08/30 00:27:20;;;;;;;10.20;2.87;;;12.00;99.90;;;;;;5034862;28;20172;-75
2023/08/30 00:29:46;;;;;;;6.37;2.13;;;11.90;99.90;;;;;;5034966;28;20168;-74
2023/08/30 00:32:12;;;;;;;11.23;2.27;;;11.90;99.90;;;;;;5035041;28;20216;-74
2023/08/30 00:34:37;;;;;;;6.90;2.30;;;12.10;99.90;;;;;;5034521;28;20201;-74
2023/08/30 00:37:03;;;;;;;10.03;2.50;;;12.80;99.90;;;;;;5048160;28;20203;-74
2023/08/30 00:39:28;;;;;;;10.07;2.03;;;11.90;99.90;;;;;;5053329;28;20220;-74
2023/08/30 00:41:54;;;;;;;8.67;2.20;;;11.90;99.90;;;;;;5048899;28;20547;-74
2023/08/30 00:44:20;;;;;;;7.70;2.60;;;11.90;99.90;;;;;;5033605;28;20169;-74
2023/08/30 00:46:45;;;;;;;9.30;2.50;;;12.40;99.90;;;;;;5033279;28;20166;-74
2023/08/30 00:49:11;;;;;;;9.90;2.23;;;11.90;99.90;;;;;;5034655;28;20534;-74
2023/08/30 00:51:37;;;;;;;12.10;2.77;;;11.80;99.90;;;;;;5034647;28;20631;-74
2023/08/30 00:54:02;;;;;;;6.50;2.23;;;11.90;99.90;;;;;;5034721;28;20189;-76
2023/08/30 00:56:29;;;;;;;8.07;2.27;;;11.80;99.90;;;;;;5034289;28;20227;-75
2023/08/30 00:58:55;;;;;;;11.90;2.40;;;11.90;99.90;;;;;;5034424;28;20189;-74
2023/08/30 01:01:21;;;;;;;11.10;2.37;;;11.80;99.90;;;;;;5044539;28;20186;-75
2023/08/30 01:03:47;;;;;;;5.77;2.20;;;11.60;99.90;;;;;;5054264;28;20169;-75
2023/08/30 01:06:13;;;;;;;4.33;1.87;;;;;;;;;;5047647;28;20177;-75
2023/08/30 01:08:41;;;;;;;8.23;2.47;;;11.70;99.90;;;;;;5034132;28;20193;-75
2023/08/30 01:11:28;;;;;;;6.83;2.23;;;11.80;99.90;;;;;;5034107;28;20197;-75
2023/08/30 01:14:00;;;;;;;3.50;1.87;;;11.80;99.90;;;;;;5034205;28;20166;-74
2023/08/30 01:16:26;;;;;;;11.73;2.50;;;11.70;99.90;;;;;;5033964;28;20188;-74
2023/08/30 01:18:56;;;;;;;8.97;2.07;;;11.80;99.90;;;;;;5032734;28;20174;-74
2023/08/30 01:21:43;;;;;;;7.13;2.97;;;11.60;99.90;;;;;;5033927;28;20253;-74
2023/08/30 01:24:14;;;;;;;5.80;2.23;;;11.70;99.90;;;;;;5033940;28;20656;-74
2023/08/30 01:27:07;;;;;;;6.33;2.17;;;11.80;99.90;;;;;;5032705;28;20196;-74
2023/08/30 01:29:34;;;;;;;5.57;2.10;;;11.80;99.90;;;;;;5033845;28;20193;-74
2023/08/30 01:32:02;;;;;;;8.90;2.20;;;11.90;99.90;;;;;;5032435;28;20177;-74
2023/08/30 01:34:28;;;;;;;9.97;2.10;;;11.90;99.90;;;;;;5033803;28;20194;-73
2023/08/30 01:36:54;;;;;;;8.47;2.27;;;11.90;99.90;;;;;;5035050;28;20224;-74
2023/08/30 01:39:22;;;;;;;7.53;2.10;;;12.00;99.90;;;;;;5033807;28;20831;-73
2023/08/30 01:41:47;;;;;;;8.90;2.17;;;12.00;99.90;;;;;;5034691;28;20249;-74
2023/08/30 01:44:16;;;;;;;7.67;2.10;;;12.00;99.90;;;;;;5038460;28;20216;-73
2023/08/30 01:46:42;;;;;;;8.90;2.33;;;12.10;99.90;;;;;;5053146;28;20165;-74
2023/08/30 01:49:09;;;;;;;7.63;2.43;;;12.10;99.90;;;;;;5040069;28;20166;-73
2023/08/30 01:51:35;;;;;;;5.83;1.93;;;11.10;99.90;;;;;;5032576;28;20208;-74
2023/08/30 01:54:02;;;;;;;7.83;2.37;;;12.20;99.90;;;;;;5033387;28;20265;-74
2023/08/30 01:56:27;;;;;;;9.50;2.17;;;12.80;99.90;;;;;;5032093;28;20181;-74
2023/08/30 01:58:53;;;;;;;7.27;2.23;;;13.10;99.90;;;;;;5033081;28;20174;-74
2023/08/30 02:01:19;;;;;;;8.07;2.00;;;12.40;99.90;;;;;;5033350;28;20185;-74
2023/08/30 02:03:45;;;;;;;7.43;1.70;;;12.40;99.90;;;;;;5044597;28;20192;-74
2023/08/30 02:06:29;;;;;;;7.45;2.03;;;12.40;99.90;;;;;;5051439;28;20176;-73
2023/08/30 02:09:01;;;;;;;10.32;2.42;;;12.50;99.90;;;;;;5051226;28;20173;-74
2023/08/30 02:11:31;;;;;;;6.23;2.20;;;12.60;99.90;;;;;;5052918;28;20180;-74
2023/08/30 02:13:59;;;;;;;11.97;2.20;;;12.70;99.90;;;;;;5051781;28;20177;-74
2023/08/30 02:16:26;;;;;;;8.45;2.35;;;12.80;99.90;;;;;;5051518;28;20254;-74
2023/08/30 02:18:53;;;;;;;7.27;1.97;;;12.90;99.90;;;;;;5051373;28;20169;-74
2023/08/30 02:21:18;;;;;;;9.32;2.45;;;12.90;99.90;;;;;;5052633;28;20169;-73
2023/08/30 02:23:48;;;;;;;5.53;2.10;;;13.00;99.90;;;;;;5052888;28;20184;-74
2023/08/30 02:26:14;;;;;;;6.97;1.90;;;13.10;99.90;;;;;;5052536;28;20192;-74
2023/08/30 02:28:39;;;;;;;14.32;2.58;;;13.10;99.90;;;;;;5051399;28;20169;-74
2023/08/30 02:31:05;;;;;;;7.80;2.30;;;;;;;;;;5052182;28;20204;-74
2023/08/30 02:33:31;;;;;;;5.65;1.95;;;13.00;99.90;;;;;;5052495;28;20181;-74
2023/08/30 02:35:56;;;;;;;7.43;2.00;;;13.30;99.90;;;;;;5051044;28;20185;-74
2023/08/30 02:38:22;;;;;;;10.88;2.10;;;13.50;99.90;;;;;;5052471;28;20181;-75
2023/08/30 02:40:48;;;;;;;7.97;2.00;;;13.60;99.90;;;;;;5052081;28;20229;-74
2023/08/30 02:43:14;;;;;;;9.40;2.20;;;13.70;99.90;;;;;;5046964;28;20208;-74
2023/08/30 02:45:40;;;;;;;5.50;1.85;;;13.70;99.90;;;;;;5036169;28;20166;-74
2023/08/30 02:48:05;;;;;;;8.70;2.13;;;13.70;99.90;;;;;;5032454;28;20185;-72
2023/08/30 02:50:31;;;;;;;12.07;1.98;;;13.80;99.90;;;;;;5032233;28;20170;-72
2023/08/30 02:52:57;;;;;;;7.50;1.95;;;13.80;99.90;;;;;;5032101;28;20178;-72
2023/08/30 02:55:22;;;;;;;3.50;1.63;;;13.80;99.90;;;;;;5031852;28;20178;-72
2023/08/30 02:57:48;;;;;;;9.68;1.95;;;13.80;99.90;;;;;;5032122;28;20198;-72
2023/08/30 03:00:14;;;;;;;10.40;2.20;;;13.70;99.90;;;;;;5032047;28;20174;-73
2023/08/30 03:02:40;;;;;;;10.55;2.08;;;13.70;99.90;;;;;;5031910;28;20209;-72
2023/08/30 03:05:06;;;;;;;5.07;2.10;;;13.70;99.90;;;;;;5031941;28;20683;-72
2023/08/30 03:07:31;;;;;;;11.93;2.15;;;13.70;99.90;;;;;;5046886;28;20205;-72
2023/08/30 03:09:57;;;;;;;7.40;1.90;;;;;;;;;;5051688;28;20197;-72
2023/08/30 03:12:23;;;;;;;6.20;1.85;;;13.80;99.90;;;;;;5051818;28;20234;-72
2023/08/30 03:14:49;;;;;;;7.75;1.73;;;13.80;99.90;;;;;;5045682;28;20170;-74
2023/08/30 03:17:14;;;;;;;4.75;1.60;;;13.90;99.90;;;;;;5031688;28;20656;-74
2023/08/30 03:19:40;;;;;;;8.13;2.22;;;13.80;99.90;;;;;;5031781;28;20170;-74
2023/08/30 03:22:05;;;;;;;6.97;1.50;;;13.90;99.90;;;;;;5031666;28;20288;-72
2023/08/30 03:24:31;;;;;;;7.82;1.88;;;13.80;99.90;;;;;;5031520;28;20645;-72
2023/08/30 03:26:56;;;;;;;8.18;2.05;;;14.00;99.90;;;;;;5044107;28;20181;-72
2023/08/30 03:29:22;;;;;;;7.45;1.83;;;13.80;99.90;;;;;;5051536;28;20656;-72
2023/08/30 03:31:48;;;;;;;9.38;2.13;;;13.70;99.90;;;;;;5049918;28;20218;-72
2023/08/30 03:34:13;;;;;;;7.30;1.70;;;15.90;99.90;;;;;;5039118;28;20644;-72
2023/08/30 03:36:43;;;;;;;7.55;1.70;;;13.60;99.90;;;;;;5031446;28;20178;-72
2023/08/30 03:39:09;;;;;;;7.63;1.73;;;13.50;99.90;;;;;;5031520;28;20197;-72
2023/08/30 03:41:35;;;;;;;9.35;2.05;;;;;;;;;;5032500;28;20189;-72
2023/08/30 03:44:01;;;;;;;7.88;1.70;;;13.20;99.90;;;;;;5031777;28;20208;-72
2023/08/30 03:46:26;;;;;;;7.30;1.90;;;13.10;99.90;;;;;;5031108;28;20197;-72
2023/08/30 03:48:52;;;;;;;9.93;2.10;;;12.90;99.90;;;;;;5031163;28;20174;-72
2023/08/30 03:51:17;;;;;;;10.00;2.65;;;12.90;99.90;;;;;;5031267;28;20648;-72
2023/08/30 03:53:43;;;;;;;8.82;1.80;;;13.00;99.90;;;;;;5031125;28;20747;-72
2023/08/30 03:56:09;;;;;;;6.57;2.10;;;12.90;99.90;;;;;;5030319;28;20652;-72
2023/08/30 03:58:34;;;;;;;6.70;2.03;;;12.90;99.90;;;;;;5031009;28;20186;-72
2023/08/30 04:01:00;;;;;;;9.45;2.15;;;12.80;99.90;;;;;;5037062;28;20181;-73
2023/08/30 04:03:25;;;;;;;7.97;1.90;;;13.20;99.90;;;;;;5050817;28;20248;-72
2023/08/30 04:05:57;;;;;;;6.00;1.97;;;12.90;99.90;;;;;;5050942;28;20538;-72
2023/08/30 04:08:23;;;;;;;5.17;1.73;;;12.80;99.90;;;;;;5051122;28;20212;-72
2023/08/30 04:10:52;;;;;;;11.90;1.90;;;12.80;99.90;;;;;;5031694;28;20198;-72
2023/08/30 04:13:18;;;;;;;7.90;2.27;;;12.80;99.90;;;;;;5030894;28;20185;-73
2023/08/30 04:15:43;;;;;;;9.87;1.90;;;12.90;99.90;;;;;;5030850;28;20173;-71
2023/08/30 04:18:09;;;;;;;7.07;2.00;;;13.10;99.90;;;;;;5031300;28;20196;-72
2023/08/30 04:20:35;;;;;;;6.20;1.70;;;;;;;;;;5030788;28;20652;-72
2023/08/30 04:23:01;;;;;;;6.97;1.80;;;12.70;99.90;;;;;;5031010;28;20210;-73
2023/08/30 04:25:30;;;;;;;6.70;2.10;;;12.70;99.90;;;;;;5031805;28;20174;-72
2023/08/30 04:27:56;;;;;;;6.00;1.50;;;12.70;99.90;;;;;;5029740;28;20185;-72
2023/08/30 04:30:22;;;;;;;9.63;1.93;;;12.90;99.90;;;;;;5030662;28;20173;-72
2023/08/30 04:32:48;;;;;;;10.17;2.20;;;12.80;99.90;;;;;;5031124;28;20285;-72
2023/08/30 04:35:13;;;;;;;6.83;1.93;;;12.80;99.90;;;;;;5030680;28;20177;-72
2023/08/30 04:37:39;;;;;;;10.73;2.20;;;12.90;99.90;;;;;;5030697;28;20181;-72
2023/08/30 04:40:07;;;;;;;5.77;1.97;;;12.90;99.90;;;;;;5030604;28;20225;-73
2023/08/30 04:42:32;;;;;;;5.90;1.90;;;12.80;99.90;;;;;;5029259;28;20707;-72
2023/08/30 04:45:00;;;;;;;5.80;1.70;;;13.00;99.90;;;;;;5030542;28;20182;-73
2023/08/30 04:47:27;;;;;;;8.20;2.10;;;13.00;99.90;;;;;;5029138;28;20231;-73
2023/08/30 04:49:53;;;;;;;8.87;2.10;;;13.00;99.90;;;;;;5030468;28;20224;-74
2023/08/30 04:52:18;;;;;;;9.03;1.60;;;13.00;99.90;;;;;;5030541;28;20530;-73
2023/08/30 04:54:45;;;;;;;6.87;2.13;;;13.10;99.90;;;;;;5030479;28;20166;-73
2023/08/30 04:57:14;;;;;;;6.87;1.40;;;13.10;99.90;;;;;;5031932;28;20182;-72
2023/08/30 04:59:40;;;;;;;10.23;1.75;;;13.10;99.90;;;;;;5030609;28;20166;-73
2023/08/30 05:02:06;;;;;;;5.65;1.70;;;13.10;99.90;;;;;;5030386;28;20711;-72
2023/08/30 05:04:31;;;;;;;9.30;1.83;;;13.10;99.90;;;;;;5030409;28;20178;-72
2023/08/30 05:06:57;;;;;;;8.40;1.73;;;13.10;99.90;;;;;;5012890;28;20616;-72
2023/08/30 05:09:24;;;;;;;5.40;1.60;;;13.10;99.90;;;;;;5051104;28;20178;-72
2023/08/30 05:11:56;;;;;;;5.47;1.58;;;13.00;99.90;;;;;;5053947;28;20658;-72
2023/08/30 05:14:22;;;;;;;8.77;1.90;;;13.00;99.90;;;;;;5054089;28;20617;-73
2023/08/30 05:16:49;;;;;;;7.03;1.67;;;13.00;99.90;;;;;;5039912;28;20671;-72
2023/08/30 05:19:16;;;;;;;10.27;1.97;;;13.20;99.90;;;;;;5033252;28;20181;-72
2023/08/30 05:21:42;;;;;;;7.18;1.92;;;13.00;99.90;;;;;;5033884;28;20198;-73
2023/08/30 05:24:08;;;;;;;4.00;1.52;;;;;;;;;;5051042;28;20204;-74
2023/08/30 05:26:34;;;;;;;5.70;1.53;;;12.90;99.90;;;;;;5053871;28;20191;-71
2023/08/30 05:28:59;;;;;;;4.57;1.45;;;12.90;99.90;;;;;;5052950;28;20643;-72
2023/08/30 05:31:25;;;;;;;5.68;1.60;;;12.90;99.90;;;;;;5053616;28;20169;-71
2023/08/30 05:33:51;;;;;;;9.57;1.73;;;12.90;99.90;;;;;;5053785;28;20636;-74
2023/08/30 05:36:17;;;;;;;7.80;1.43;;;12.70;99.90;;;;;;5053649;28;20170;-74
2023/08/30 05:38:43;;;;;;;4.47;1.30;;;12.90;99.90;;;;;;5041399;28;20676;-74
2023/08/30 05:41:08;;;;;;;9.67;1.60;;;13.00;99.90;;;;;;5033437;28;20229;-74
2023/08/30 05:43:34;;;;;;;6.35;1.35;;;13.00;99.90;;;;;;5033359;28;20237;-73
2023/08/30 05:46:02;;;;;;;3.00;1.25;;;13.20;99.90;;;;;;5033581;28;20182;-74
2023/08/30 05:48:28;;;;;;;8.90;2.28;;;13.00;99.90;;;;;;5034688;28;20187;-73
2023/08/30 05:50:54;;;;;;;9.60;1.70;;;13.00;99.90;;;;;;5033330;28;20220;-73
2023/08/30 05:53:20;;;;;;;3.20;1.10;;;13.10;99.90;;;;;;5033402;28;20174;-73
2023/08/30 05:55:45;;;;;;;5.63;1.30;;;13.00;99.90;;;;;;5033361;28;20252;-73
2023/08/30 05:58:11;;;;;;;7.28;1.45;;;13.10;99.90;;;;;;5033280;28;20197;-73
2023/08/30 06:00:37;;;;;;;4.22;1.30;;;13.10;99.90;;;;;;5033143;28;20208;-72
2023/08/30 06:03:03;;;;;;;7.53;1.38;;;13.10;99.90;;;;;;5031790;28;20379;-73
2023/08/30 06:05:29;;;;;;;3.97;1.40;;;13.10;99.90;;;;;;5033373;28;20571;-73
2023/08/30 06:07:54;;;;;;;7.97;1.63;;;13.20;99.90;;;;;;5031764;28;20547;-73
2023/08/30 06:10:20;;;;;;;4.35;1.30;;;13.10;99.90;;;;;;5033060;28;20162;-73
2023/08/30 06:12:46;;;;;;;7.90;1.55;;;13.60;99.90;;;;;;5041410;28;20268;-73
2023/08/30 06:15:11;;;;;;;6.55;1.40;;;13.20;99.90;;;;;;5043375;28;20263;-73
2023/08/30 06:17:37;;;;;;;3.88;1.30;;;13.30;99.90;;;;;;5043680;28;20282;-73
2023/08/30 06:20:03;;;;;;;10.05;1.40;;;13.30;99.90;;;;;;5051952;28;20185;-73
2023/08/30 06:22:29;;;;;;;5.95;1.58;;;13.30;99.90;;;;;;5052820;28;20303;-73
2023/08/30 06:24:54;;;;;;;6.82;1.58;;;13.50;99.90;;;;;;5051411;28;20537;-73
2023/08/30 06:27:20;;;;;;;6.50;1.20;;;13.40;99.90;;;;;;5051347;28;20174;-73
2023/08/30 06:29:46;;;;;;;6.18;1.60;;;;;;;;;;5052495;28;20681;-73
2023/08/30 06:32:12;;;;;;;8.23;1.52;;;13.40;99.90;;;;;;5052582;28;20173;-73
2023/08/30 06:34:37;;;;;;;7.05;1.25;;;13.50;99.90;;;;;;5036478;28;20583;-73
2023/08/30 06:37:03;;;;;;;10.95;1.75;;;13.60;99.90;;;;;;5032750;28;20178;-73
2023/08/30 06:39:34;;;;;;;6.40;1.50;;;13.70;99.90;;;;;;5034694;28;20688;-72
2023/08/30 06:42:00;;;;;;;6.25;1.50;;;13.70;99.90;;;;;;5050943;28;20301;-75
2023/08/30 06:44:25;;;;;;;6.88;1.50;;;14.10;99.90;;;;;;5052359;28;20252;-74
2023/08/30 06:46:51;;;;;;;9.57;1.73;;;13.90;99.90;;;;;;5052187;28;20264;-75
2023/08/30 06:49:17;;;;;;;5.47;1.50;;;14.00;99.90;;;;;;5052275;28;20584;-76
2023/08/30 06:51:42;;;;;;;2.50;1.02;;;14.00;99.90;;;;;;5041654;28;20199;-75
2023/08/30 06:54:08;;;;;;;7.28;1.60;;;13.90;99.90;;;;;;5047280;28;20173;-75
2023/08/30 06:56:33;;;;;;;8.15;2.08;;;14.10;99.90;;;;;;5051953;28;20184;-75
2023/08/30 06:58:59;;;;;;;7.25;1.40;;;14.20;99.90;;;;;;5052128;28;20184;-75
2023/08/30 07:01:25;;;;;;;9.85;1.27;;;14.20;99.90;;;;;;5051984;28;20367;-74
2023/08/30 07:03:50;;;;;;;7.60;1.48;;;14.30;99.90;;;;;;5052071;28;20211;-74
2023/08/30 07:06:16;;;;;;;5.90;1.63;;;14.40;99.90;;;;;;5051695;28;20623;-74
2023/08/30 07:08:41;;;;;;;7.75;1.50;;;14.50;99.90;;;;;;5050443;28;20177;-74
2023/08/30 07:11:07;;;;;;;5.68;1.60;;;14.70;99.90;;;;;;5051702;28;20173;-75
2023/08/30 07:13:33;;;;;;;5.90;1.52;;;14.70;99.90;;;;;;5051364;28;20281;-73
2023/08/30 07:15:58;;;;;;;10.05;1.48;;;14.70;99.90;;;;;;5049836;28;20181;-75
2023/08/30 07:18:24;;;;;;;5.05;1.27;;;16.20;99.90;;;;;;5051521;28;20169;-73
2023/08/30 07:20:49;;;;;;;6.47;1.20;;;14.70;99.90;;;;;;5029865;28;20732;-74
2023/08/30 07:23:15;;;;;;;8.57;1.52;;;14.80;99.90;;;;;;5031440;28;20217;-74
2023/08/30 07:25:41;;;;;;;5.13;1.50;;;15.00;99.90;;;;;;5031665;28;20176;-74
2023/08/30 07:28:06;;;;;;;5.32;0.90;;;14.90;99.90;;;;;;5031598;28;20170;-74
2023/08/30 07:30:32;;;;;;;6.15;1.33;;;15.00;99.90;;;;;;5031451;28;20174;-75
2023/08/30 07:32:58;;;;;;;6.68;1.27;;;15.20;99.90;;;;;;5031372;28;20637;-76
2023/08/30 07:35:23;;;;;;;5.18;1.40;;;15.20;99.90;;;;;;5030260;28;20165;-75
2023/08/30 07:37:49;;;;;;;8.15;0.90;;;15.30;99.90;;;;;;5031473;28;20174;-74
2023/08/30 07:40:15;;;;;;;3.38;1.05;;;15.50;99.90;;;;;;5031124;28;20252;-75
2023/08/30 07:42:40;;;;;;;5.25;1.40;;;15.50;99.90;;;;;;5030975;28;20300;-75
2023/08/30 07:45:06;;;;;;;4.82;1.25;;;15.60;99.90;;;;;;5032270;28;20161;-74
2023/08/30 07:47:32;;;;;;;5.20;1.17;;;15.60;99.90;;;;;;5031223;28;20188;-74
2023/08/30 07:49:58;;;;;;;3.45;0.82;;;15.40;99.90;;;;;;5031304;28;20174;-74
2023/08/30 07:52:23;;;;;;;6.03;1.25;;;15.70;99.90;;;;;;5049045;28;20169;-75
2023/08/30 07:54:49;;;;;;;7.05;1.05;;;15.80;99.90;;;;;;5050918;28;20243;-75
2023/08/30 07:57:14;;;;;;;7.60;1.30;;;15.80;99.90;;;;;;5050867;28;20164;-73
2023/08/30 07:59:41;;;;;;;3.15;1.05;;;16.00;99.90;;;;;;5049630;28;20592;-73
2023/08/30 08:02:07;;;;;;;9.25;1.15;;;16.10;99.90;;;;;;5049503;28;20311;-73
2023/08/30 08:04:34;;;;;;;8.02;1.40;;;16.40;99.90;;;;;;5050766;28;20173;-73
2023/08/30 08:07:00;;;;;;;5.45;1.00;;;16.30;99.90;;;;;;5050632;28;20540;-74
2023/08/30 08:09:25;;;;;;;4.07;0.82;;;16.50;99.90;;;;;;5050955;28;20184;-74
2023/08/30 08:11:51;;;;;;;4.55;1.13;;;16.30;99.90;;;;;;5050736;28;20211;-74
2023/08/30 08:14:17;;;;;;;6.07;0.98;;;16.30;99.90;;;;;;5046508;28;20178;-74
2023/08/30 08:16:42;;;;;;;6.65;1.15;;;16.30;99.90;;;;;;5030926;28;20228;-74
2023/08/30 08:19:08;;;;;;;3.20;1.02;;;16.20;99.90;;;;;;5031191;28;20622;-75
2023/08/30 08:21:34;;;;;;;6.40;1.00;;;16.30;99.90;;;;;;5031221;28;20452;-74
2023/08/30 08:24:00;;;;;;;5.47;1.35;;;16.20;99.90;;;;;;5044568;28;20197;-74
2023/08/30 08:26:26;;;;;;;6.20;1.15;;;16.30;99.90;;;;;;5037897;28;20718;-73
2023/08/30 08:28:53;;;;;;;4.93;1.05;;;16.50;99.90;;;;;;5050622;28;20303;-74
2023/08/30 08:31:18;;;;;;;4.40;1.00;;;16.60;99.90;;;;;;5050796;28;20174;-73
2023/08/30 08:33:44;;;;;;;4.20;1.10;;;16.80;99.90;;;;;;5049234;28;20184;-74
2023/08/30 08:36:10;;;;;;;8.18;1.45;;;16.80;99.90;;;;;;5049165;28;20652;-74
2023/08/30 08:38:36;;;;;;;3.28;1.10;;;16.90;99.90;;;;;;5046718;28;20205;-73
2023/08/30 08:41:04;;;;;;;5.50;1.20;;;17.00;99.90;;;;;;5044564;28;20695;-73
2023/08/30 08:43:32;;;;;;;6.53;1.10;;;16.90;99.90;;;;;;5052047;28;20276;-73
2023/08/30 08:46:00;;;;;;;4.55;1.00;;;16.70;99.90;;;;;;5036943;28;20235;-73
2023/08/30 08:48:28;;;;;;;5.13;1.02;;;16.80;99.90;;;;;;5035045;28;20178;-73
2023/08/30 08:50:55;;;;;;;6.53;1.10;;;16.80;99.90;;;;;;5043004;28;20169;-74
2023/08/30 08:53:21;;;;;;;6.55;1.42;;;16.70;99.90;;;;;;5054171;28;20231;-74
2023/08/30 08:55:48;;;;;;;5.50;1.02;;;16.70;99.90;;;;;;5055182;28;20187;-74
2023/08/30 08:58:15;;;;;;;4.35;1.20;;;16.60;99.90;;;;;;5044761;28;20182;-75
2023/08/30 09:00:42;;;;;;;7.93;0.88;;;16.80;99.90;;;;;;5034558;28;20182;-75
2023/08/30 09:03:08;;;;;;;4.78;1.10;;;18.30;99.90;;;;;;5047795;28;20208;-75
2023/08/30 09:05:37;;;;;;;5.63;1.08;;;19.80;99.90;;;;;;5054568;28;20222;-75
2023/08/30 09:08:04;;;;;;;5.03;1.35;;;21.20;99.90;;;;;;5056479;28;20165;-76
2023/08/30 09:10:32;;;;;;;5.20;1.13;;;21.70;99.90;;;;;;5056337;28;20177;-77
2023/08/30 09:12:58;;;;;;;4.47;1.20;;;21.40;99.90;;;;;;5054645;28;20184;-77
2023/08/30 09:15:34;;;;;;;7.45;1.27;;;21.90;99.90;;;;;;5053979;28;20169;-78
2023/08/30 09:18:00;;;;;;;7.32;1.02;;;22.00;99.90;;;;;;5051101;28;20211;-79
2023/08/30 09:20:26;;;;;;;4.28;1.30;;;21.80;99.90;;;;;;5034017;28;20212;-78
2023/08/30 09:22:52;;;;;;;4.68;1.15;;;21.40;99.90;;;;;;5033711;28;20245;-78
2023/08/30 09:25:26;;;;;;;3.85;0.90;;;21.20;99.90;;;;;;5034877;28;20633;-78
2023/08/30 09:28:00;;;;;;;4.03;1.30;;;20.60;99.90;;;;;;5033975;28;20185;-77
2023/08/30 09:30:27;;;;;;;3.63;1.05;;;20.10;99.90;;;;;;5034620;28;20177;-77
2023/08/30 09:32:52;;;;;;;3.53;0.95;;;19.40;38.40;;;;;;5034845;28;20264;-75
2023/08/30 09:35:18;;;;;;;3.33;0.75;;;19.40;25.90;;;;;;5054214;28;20307;-77
2023/08/30 09:37:47;;;;;;;7.85;1.40;;;19.20;1.00;;;;;;5055448;28;20204;-76
2023/08/30 09:40:18;;;;;;;7.70;1.75;;;19.40;1.00;;;;;;5051286;28;20224;-77
2023/08/30 09:42:44;;;;;;;3.40;1.05;;;19.40;1.00;;;;;;5053350;28;20215;-77
2023/08/30 09:45:22;;;;;;;6.47;1.30;;;19.20;1.00;;;;;;5042255;28;20533;-75
2023/08/30 09:47:49;;;;;;;5.30;0.95;;;18.80;1.00;;;;;;5041600;28;20203;-75
2023/08/30 09:50:19;;;;;;;4.40;1.08;;;18.70;1.00;;;;;;5053291;28;20617;-77
2023/08/30 09:52:48;;;;;;;6.82;1.08;;;18.70;1.00;;;;;;5046552;28;20248;-75
2023/08/30 09:55:14;;;;;;;3.63;0.98;;;18.60;99.90;;;;;;5032077;28;20182;-76
2023/08/30 09:57:43;;;;;;;4.22;1.00;;;18.50;54.80;;;;;;5033370;28;20201;-76
2023/08/30 10:00:12;;;;;;;3.28;0.93;;;18.40;99.90;;;;;;5033360;28;20162;-76
2023/08/30 10:02:41;;;;;;;6.05;1.23;;;18.20;1.00;;;;;;5033252;28;20206;-76
2023/08/30 10:05:08;;;;;;;2.90;0.80;;;18.10;99.90;;;;;;5032979;28;20182;-76
2023/08/30 10:07:36;;;;;;;6.00;0.98;;;18.00;88.90;;;;;;5032061;28;20174;-75
2023/08/30 10:10:04;;;;;;;2.92;0.90;;;18.10;99.90;;;;;;5038146;28;20253;-76
2023/08/30 10:12:32;;;;;;;1.60;0.82;;;18.10;99.90;;;;;;5033307;28;20661;-75
2023/08/30 10:14:57;;;;;;;6.40;1.20;;;18.10;99.90;;;;;;5032858;28;20170;-76
2023/08/30 10:17:28;;;;;;;7.90;1.27;;;18.70;99.90;;;;;;5033905;28;20170;-76
2023/08/30 10:19:55;;;;;;;7.30;1.00;;;20.10;1.00;;;;;;5033709;28;20221;-79
2023/08/30 10:22:22;;;;;;;5.85;1.10;;;20.90;3.40;;;;;;5033645;28;20260;-76
2023/08/30 10:25:01;;;;;;;3.55;0.90;;;21.30;99.90;;;;;;5032875;28;20211;-77
2023/08/30 10:27:29;;;;;;;2.50;0.88;;;20.80;1.00;;;;;;5032682;28;20165;-77
2023/08/30 10:29:56;;;;;;;3.13;0.77;;;20.30;99.90;;;;;;5034268;28;20202;-77
2023/08/30 10:32:22;;;;;;;2.90;0.85;;;20.30;99.90;;;;;;5034787;28;20205;-77
2023/08/30 10:34:51;;;;;;;2.78;1.05;;;20.10;99.90;;;;;;5033607;28;20215;-77
2023/08/30 10:37:24;;;;;;;2.08;0.90;;;19.90;1.00;;;;;;5033282;28;20177;-77
2023/08/30 10:39:49;;;;;;;3.15;1.00;;;20.10;1.00;;;;;;5033291;28;20225;-77
2023/08/30 10:42:16;;;;;;;3.92;1.10;;;20.20;1.00;;;;;;5033506;28;20564;-76
2023/08/30 10:45:04;;;;;;;3.17;0.88;;;20.10;99.90;;;;;;5032582;28;20261;-77
2023/08/30 10:47:37;;;;;;;6.18;1.20;;;20.40;19.70;;;;;;5032269;28;20170;-77
2023/08/30 10:50:33;;;;;;;2.72;0.98;;;20.80;1.00;;;;;;5034166;28;20170;-75
2023/08/30 10:52:59;;;;;;;6.22;1.00;;;20.80;1.00;;;;;;5032885;28;20170;-77
2023/08/30 10:55:25;;;;;;;3.70;1.15;;;20.90;99.90;;;;;;5032237;28;20629;-76
2023/08/30 10:58:04;;;;;;;4.15;1.33;;;20.90;99.90;;;;;;5032756;28;20169;-76
2023/08/30 11:00:30;;;;;;;3.97;1.02;;;22.70;26.60;;;;;;5032175;28;20260;-77
2023/08/30 11:02:56;;;;;;;3.50;0.90;;;22.60;1.00;;;;;;5031945;28;20295;-77
2023/08/30 11:05:24;;;;;;;3.70;1.10;;;23.00;1.00;;;;;;5031915;28;20242;-77
2023/08/30 11:07:51;;;;;;;3.75;0.77;;;22.60;1.00;;;;;;5032157;28;20185;-77
2023/08/30 11:10:17;;;;;;;5.45;0.85;;;21.90;1.00;;;;;;5032576;28;20189;-76
2023/08/30 11:12:45;;;;;;;5.80;1.20;;;21.50;1.00;;;;;;5032407;28;20170;-79
2023/08/30 11:15:15;;;;;;;5.63;1.00;;;21.60;1.00;;;;;;5032143;28;20219;-77
2023/08/30 11:17:42;;;;;;;1.35;0.80;;;23.70;99.90;;;;;;5063901;28;20205;-77
2023/08/30 11:20:10;;;;;;;2.47;0.82;;;23.60;99.90;;;;;;5031885;28;20185;-77
2023/08/30 11:22:43;;;;;;;1.85;0.80;;;23.90;99.90;;;;;;5031835;28;20218;-77
2023/08/30 11:25:10;;;;;;;5.18;1.20;;;24.70;99.90;;;;;;5030540;28;20182;-77
2023/08/30 11:27:37;;;;;;;2.97;1.10;;;24.80;99.90;;;;;;5031824;28;20184;-77
2023/08/30 11:30:05;;;;;;;4.68;1.30;;;24.50;15.30;;;;;;5031751;28;20174;-76
2023/08/30 11:32:39;;;;;;;3.88;1.00;;;23.40;1.00;;;;;;5031639;28;20239;-77
2023/08/30 11:35:05;;;;;;;2.65;1.00;;;22.90;1.00;;;;;;5063508;28;20174;-77
2023/08/30 11:37:32;;;;;;;4.20;1.23;;;22.30;99.90;;;;;;5031387;28;20190;-77
2023/08/30 11:39:58;;;;;;;4.53;0.82;;;22.00;99.90;;;;;;5031478;28;20260;-77
2023/08/30 11:42:25;;;;;;;2.05;0.98;;;21.60;99.90;;;;;;5068617;28;20209;-75
2023/08/30 11:44:51;;;;;;;3.72;1.20;;;21.00;99.90;;;;;;5041561;28;20169;-76
2023/08/30 11:47:25;;;;;;;2.90;1.00;;;20.50;99.90;;;;;;5049756;28;20200;-76
2023/08/30 11:49:56;;;;;;;3.50;0.90;;;20.40;1.00;;;;;;5050092;28;20729;-75
2023/08/30 11:52:23;;;;;;;2.17;0.90;;;20.40;1.00;;;;;;5031709;28;20258;-76
2023/08/30 11:54:50;;;;;;;3.67;0.85;;;20.60;1.00;;;;;;5031023;28;20702;-75
2023/08/30 11:57:16;;;;;;;4.13;1.25;;;21.00;1.00;;;;;;5032683;28;20181;-77
2023/08/30 11:59:42;;;;;;;6.45;0.95;;;22.20;99.90;;;;;;5051148;28;20199;-75
2023/08/30 12:02:08;;;;;;;3.30;0.90;;;22.10;99.90;;;;;;5051085;28;20199;-76
2023/08/30 12:04:45;;;;;;;7.25;1.58;;;21.90;39.30;;;;;;5051194;28;20170;-77
2023/08/30 12:07:24;;;;;;;5.70;1.40;;;19.40;33.20;;;;;;5049853;28;20184;-77
2023/08/30 12:09:50;;;;;;;3.42;1.10;;;22.20;1.00;;;;;;5051001;28;20201;-77
2023/08/30 12:12:16;;;;;;;4.40;1.13;;;;;;;;;;5050916;28;20596;-76
2023/08/30 12:14:42;;;;;;;3.00;0.98;;;24.00;48.70;;;;;;5051190;28;20173;-75
2023/08/30 12:17:11;;;;;;;2.75;1.20;;;21.50;1.00;;;;;;5037934;28;20261;-76
2023/08/30 12:19:36;;;;;;;5.18;0.98;;;21.40;99.90;;;;;;5041468;28;20185;-75
2023/08/30 12:22:06;;;;;;;2.03;0.73;;;21.80;99.90;;;;;;5050683;28;20202;-77
2023/08/30 12:24:45;;;;;;;4.20;1.10;;;21.60;99.90;;;;;;5051062;28;20652;-76
2023/08/30 12:27:10;;;;;;;3.25;0.75;;;22.80;99.90;;;;;;5049298;28;20262;-77
2023/08/30 12:29:36;;;;;;;1.90;0.88;;;24.10;99.90;;;;;;5048572;28;20636;-77
2023/08/30 12:32:02;;;;;;;2.83;1.02;;;23.90;99.90;;;;;;5039600;28;20244;-76
2023/08/30 12:34:28;;;;;;;2.85;0.95;;;22.70;99.90;;;;;;5050672;28;20170;-76
2023/08/30 12:36:54;;;;;;;1.98;0.80;;;21.90;99.90;;;;;;5050580;28;20165;-75
2023/08/30 12:39:19;;;;;;;2.45;0.88;;;21.70;1.00;;;;;;5050591;28;20219;-75
2023/08/30 12:41:45;;;;;;;3.33;0.90;;;21.60;69.20;;;;;;5048376;28;21361;-74
2023/08/30 12:44:10;;;;;;;3.92;0.80;;;21.70;99.90;;;;;;5042707;28;20315;-76
2023/08/30 12:46:36;;;;;;;1.83;0.70;;;21.60;18.90;;;;;;5034841;28;20177;-74
2023/08/30 12:49:02;;;;;;;2.60;0.95;;;21.40;26.40;;;;;;5043403;28;20234;-75